sensor_id;sensor_type;location;lat;lon;timestamp;temperature;humidity
5828;DHT22;42583;50.240;8.444;2023-04-15T00:15:00;7.00;74.60
5828;DHT22;42583;50.240;8.444;2023-04-15T00:30:01;7.00;74.80
5828;DHT22;42583;50.240;8.444;2023-04-15T00:45:03;6.90;75.30
5828;DHT22;42583;50.240;8.444;2023-04-15T01:00:05;6.90;75.30
5828;DHT22;42583;50.240;8.444;2023-04-15T01:15:10;6.90;75.30
5828;DHT22;42583;50.240;8.444;2023-04-15T01:30:11;6.40;76.60
5828;DHT22;42583;50.240;8.444;2023-04-15T01:45:12;6.30;77.40
5828;DHT22;42583;50.240;8.444;2023-04-15T02:00:16;6.30;77.70
5828;DHT22;42583;50.240;8.444;2023-04-15T02:15:17;6.20;77.00
5828;DHT22;42583;50.240;8.444;2023-04-15T02:30:17;5.70;80.30
5828;DHT22;42583;50.240;8.444;2023-04-15T02:45:18;5.40;81.70
5828;DHT22;42583;50.240;8.444;2023-04-15T03:00:23;5.20;84.40
5828;DHT22;42583;50.240;8.444;2023-04-15T03:15:24;5.10;86.20
5828;DHT22;42583;50.240;8.444;2023-04-15T03:30:25;5.00;89.80
5828;DHT22;42583;50.240;8.444;2023-04-15T03:45:25;5.10;90.50
5828;DHT22;42583;50.240;8.444;2023-04-15T04:00:26;5.10;91.10
5828;DHT22;42583;50.240;8.444;2023-04-15T04:15:26;5.10;91.60
5828;DHT22;42583;50.240;8.444;2023-04-15T04:30:27;5.10;92.50
5828;DHT22;42583;50.240;8.444;2023-04-15T04:45:29;5.10;93.60
5828;DHT22;42583;50.240;8.444;2023-04-15T05:00:30;5.30;94.10
5828;DHT22;42583;50.240;8.444;2023-04-15T05:15:30;5.40;94.10
5828;DHT22;42583;50.240;8.444;2023-04-15T05:30:32;5.60;94.60
5828;DHT22;42583;50.240;8.444;2023-04-15T05:45:32;5.70;94.10
5828;DHT22;42583;50.240;8.444;2023-04-15T06:00:33;6.00;94.20
5828;DHT22;42583;50.240;8.444;2023-04-15T06:15:33;6.20;94.20
5828;DHT22;42583;50.240;8.444;2023-04-15T06:30:34;6.60;94.10
5828;DHT22;42583;50.240;8.444;2023-04-15T06:45:35;7.10;93.90
5828;DHT22;42583;50.240;8.444;2023-04-15T07:00:36;7.60;93.40
5828;DHT22;42583;50.240;8.444;2023-04-15T07:15:38;8.00;92.80
5828;DHT22;42583;50.240;8.444;2023-04-15T07:30:39;8.70;92.80
5828;DHT22;42583;50.240;8.444;2023-04-15T07:45:39;9.70;91.80
5828;DHT22;42583;50.240;8.444;2023-04-15T08:00:40;9.90;89.40
5828;DHT22;42583;50.240;8.444;2023-04-15T08:15:41;10.10;85.60
5828;DHT22;42583;50.240;8.444;2023-04-15T08:30:41;10.30;82.00
5828;DHT22;42583;50.240;8.444;2023-04-15T08:45:42;10.30;81.70
5828;DHT22;42583;50.240;8.444;2023-04-15T09:00:43;10.70;79.30
5828;DHT22;42583;50.240;8.444;2023-04-15T09:15:43;11.10;77.20
5828;DHT22;42583;50.240;8.444;2023-04-15T09:30:44;11.30;73.00
5828;DHT22;42583;50.240;8.444;2023-04-15T09:45:49;12.00;71.80
5828;DHT22;42583;50.240;8.444;2023-04-15T10:00:51;12.40;66.90
5828;DHT22;42583;50.240;8.444;2023-04-15T10:31:06;11.00;67.20
5828;DHT22;42583;50.240;8.444;2023-04-15T10:46:09;10.60;68.00
5828;DHT22;42583;50.240;8.444;2023-04-15T11:01:09;10.90;68.20
5828;DHT22;42583;50.240;8.444;2023-04-15T11:16:10;11.20;67.40
5828;DHT22;42583;50.240;8.444;2023-04-15T11:31:11;11.90;67.20
5828;DHT22;42583;50.240;8.444;2023-04-15T11:46:12;11.40;69.10
5828;DHT22;42583;50.240;8.444;2023-04-15T12:01:13;10.70;72.90
5828;DHT22;42583;50.240;8.444;2023-04-15T12:16:17;10.30;76.70
5828;DHT22;42583;50.240;8.444;2023-04-15T12:31:19;10.00;81.30
5828;DHT22;42583;50.240;8.444;2023-04-15T12:46:20;10.60;85.10
5828;DHT22;42583;50.240;8.444;2023-04-15T13:01:22;10.30;86.60
5828;DHT22;42583;50.240;8.444;2023-04-15T13:16:23;10.00;90.00
5828;DHT22;42583;50.240;8.444;2023-04-15T13:31:24;9.90;91.60
5828;DHT22;42583;50.240;8.444;2023-04-15T13:46:24;9.70;92.60
5828;DHT22;42583;50.240;8.444;2023-04-15T14:01:25;9.50;93.30
5828;DHT22;42583;50.240;8.444;2023-04-15T14:16:26;9.50;94.30
5828;DHT22;42583;50.240;8.444;2023-04-15T14:31:27;9.10;95.10
5828;DHT22;42583;50.240;8.444;2023-04-15T14:46:27;8.80;96.50
5828;DHT22;42583;50.240;8.444;2023-04-15T15:01:28;8.40;98.30
5828;DHT22;42583;50.240;8.444;2023-04-15T15:16:29;8.10;99.90
5828;DHT22;42583;50.240;8.444;2023-04-15T15:31:30;8.00;99.90
5828;DHT22;42583;50.240;8.444;2023-04-15T15:46:30;7.80;99.90
5828;DHT22;42583;50.240;8.444;2023-04-15T16:01:31;7.70;99.90
5828;DHT22;42583;50.240;8.444;2023-04-15T16:16:32;7.60;99.90
5828;DHT22;42583;50.240;8.444;2023-04-15T16:31:34;7.50;99.90
5828;DHT22;42583;50.240;8.444;2023-04-15T16:46:36;7.40;99.90
5828;DHT22;42583;50.240;8.444;2023-04-15T17:04:29;7.40;99.90
5828;DHT22;42583;50.240;8.444;2023-04-15T17:19:30;7.40;99.90
5828;DHT22;42583;50.240;8.444;2023-04-15T17:34:30;7.40;99.90
5828;DHT22;42583;50.240;8.444;2023-04-15T17:49:31;7.30;99.90
5828;DHT22;42583;50.240;8.444;2023-04-15T18:04:33;7.30;99.90
5828;DHT22;42583;50.240;8.444;2023-04-15T18:19:33;7.30;99.90
5828;DHT22;42583;50.240;8.444;2023-04-15T18:34:34;7.30;99.90
5828;DHT22;42583;50.240;8.444;2023-04-15T18:49:35;7.30;99.90
5828;DHT22;42583;50.240;8.444;2023-04-15T19:04:35;7.30;99.90
5828;DHT22;42583;50.240;8.444;2023-04-15T19:19:36;7.20;99.90
5828;DHT22;42583;50.240;8.444;2023-04-15T19:34:37;7.20;99.90
5828;DHT22;42583;50.240;8.444;2023-04-15T19:49:38;7.20;99.90
5828;DHT22;42583;50.240;8.444;2023-04-15T20:04:38;7.20;99.90
5828;DHT22;42583;50.240;8.444;2023-04-15T20:19:39;7.20;99.90
5828;DHT22;42583;50.240;8.444;2023-04-15T20:34:40;7.10;99.90
5828;DHT22;42583;50.240;8.444;2023-04-15T20:49:40;7.10;99.90
5828;DHT22;42583;50.240;8.444;2023-04-15T21:04:41;7.10;99.90
5828;DHT22;42583;50.240;8.444;2023-04-15T21:19:42;7.10;99.90
5828;DHT22;42583;50.240;8.444;2023-04-15T21:34:42;7.10;99.90
5828;DHT22;42583;50.240;8.444;2023-04-15T21:49:43;7.10;99.90
5828;DHT22;42583;50.240;8.444;2023-04-15T22:04:43;7.00;99.90
5828;DHT22;42583;50.240;8.444;2023-04-15T22:19:44;7.10;99.90
5828;DHT22;42583;50.240;8.444;2023-04-15T22:34:44;7.00;99.90
5828;DHT22;42583;50.240;8.444;2023-04-15T22:49:45;7.00;99.90
5828;DHT22;42583;50.240;8.444;2023-04-15T23:04:46;7.00;99.90
5828;DHT22;42583;50.240;8.444;2023-04-15T23:19:46;7.00;99.90
5828;DHT22;42583;50.240;8.444;2023-04-15T23:34:47;7.00;99.90
5828;DHT22;42583;50.240;8.444;2023-04-15T23:49:48;7.00;99.90
